createdAt,value
2022-12-13T02:27:43.998Z,99270.41
2022-12-13T02:29:30.695Z,99271.29
2022-12-13T02:33:45.821Z,99265.09
2022-12-13T02:35:05.109Z,99272.70
2022-12-13T02:36:37.041Z,99263.84
2022-12-13T02:40:38.529Z,99270.84
2022-12-13T02:41:52.982Z,99266.42
2022-12-13T02:43:05.742Z,99283.45
2022-12-13T02:44:25.925Z,99282.88
2022-12-13T02:45:47.943Z,99271.04
2022-12-13T02:47:03.860Z,99281.14
2022-12-13T02:48:15.593Z,99284.28
2022-12-13T02:49:28.237Z,99286.57
2022-12-13T02:50:39.485Z,99282.84
2022-12-13T02:51:52.683Z,99288.62
2022-12-13T02:53:04.782Z,99290.19
2022-12-13T02:54:14.445Z,99281.92
2022-12-13T02:55:28.054Z,99288.55
2022-12-13T02:56:36.235Z,99283.03
2022-12-13T02:57:48.978Z,99283.20
2022-12-13T02:59:00.578Z,99290.52
2022-12-13T03:01:44.706Z,99288.38
2022-12-13T03:04:46.504Z,99288.22
2022-12-13T03:06:33.738Z,99288.93
2022-12-13T03:09:21.370Z,99289.89
2022-12-13T03:12:12.100Z,99286.02
2022-12-13T03:13:45.706Z,99295.50
2022-12-13T03:16:36.413Z,99300.14
2022-12-13T03:19:12.309Z,99295.07
2022-12-13T03:20:25.063Z,99297.41
2022-12-13T03:22:58.928Z,99286.81
2022-12-13T03:24:08.703Z,99297.27
2022-12-13T03:26:37.645Z,99283.80
2022-12-13T03:27:46.810Z,99293.11
2022-12-13T03:28:57.054Z,99293.03
2022-12-13T03:30:08.843Z,99298.25
2022-12-13T03:32:32.967Z,99276.37
2022-12-13T03:33:42.236Z,99282.95
2022-12-13T03:34:53.471Z,99281.08
2022-12-13T03:36:02.968Z,99280.94
2022-12-13T03:37:12.327Z,99273.06
2022-12-13T03:39:37.871Z,99276.95
2022-12-13T03:40:48.140Z,99273.94
2022-12-13T03:42:00.938Z,99276.70
2022-12-13T03:43:09.447Z,99274.13
2022-12-13T03:44:18.457Z,99272.44
2022-12-13T03:45:28.191Z,99273.51
2022-12-13T03:46:36.783Z,99274.58
2022-12-13T03:47:45.807Z,99278.29
2022-12-13T03:48:55.441Z,99275.71
2022-12-13T03:50:25.721Z,99274.69
2022-12-13T03:51:17.984Z,99272.77
2022-12-13T03:53:44.099Z,99272.88
2022-12-13T03:54:53.940Z,99275.59
2022-12-13T03:56:05.648Z,99273.16
2022-12-13T03:57:16.178Z,99272.58
2022-12-13T03:59:41.065Z,99263.66
2022-12-13T04:00:49.763Z,99262.67
2022-12-13T04:01:59.454Z,99263.63
2022-12-13T04:03:10.275Z,99261.91
2022-12-13T04:04:19.125Z,99261.91
2022-12-13T04:05:29.204Z,99262.75
2022-12-13T04:06:38.471Z,99269.00
2022-12-13T04:07:48.777Z,99263.70
2022-12-13T04:08:57.357Z,99269.00
2022-12-13T04:10:25.324Z,99266.36
2022-12-13T04:11:42.870Z,99271.66
2022-12-13T04:13:06.988Z,99276.08
2022-12-13T04:14:22.555Z,99275.16
2022-12-13T04:15:27.675Z,99276.08
2022-12-13T04:16:36.745Z,99282.30
2022-12-13T04:19:00.295Z,99272.20
2022-12-13T04:21:31.833Z,99274.30
2022-12-13T04:22:41.618Z,99286.39
2022-12-13T04:23:50.135Z,99278.45
2022-12-13T04:24:58.748Z,99288.97
2022-12-13T04:26:07.750Z,99282.83
2022-12-13T04:27:16.886Z,99283.67
2022-12-13T04:28:26.606Z,99273.92
2022-12-13T04:29:35.221Z,99277.45
2022-12-13T04:30:44.438Z,99280.17
2022-12-13T04:31:54.377Z,99275.95
2022-12-13T04:33:04.017Z,99272.57
2022-12-13T04:34:12.927Z,99279.74
2022-12-13T04:36:36.258Z,99269.77
2022-12-13T04:37:45.744Z,99278.28
2022-12-13T04:38:54.893Z,99283.73
2022-12-13T04:40:04.708Z,99276.70
2022-12-13T04:41:17.670Z,99274.06
2022-12-13T04:42:27.327Z,99275.86
2022-12-13T04:43:37.035Z,99267.98
2022-12-13T04:44:47.186Z,99271.48
2022-12-13T04:47:10.946Z,99271.07
2022-12-13T04:48:31.084Z,99282.08
2022-12-13T04:49:31.449Z,99287.38
2022-12-13T04:50:42.311Z,99287.30
2022-12-13T04:51:53.632Z,99277.52
2022-12-13T04:54:24.222Z,99268.13
2022-12-13T04:55:28.949Z,99274.72
2022-12-13T04:57:53.373Z,99271.65
2022-12-13T04:59:02.400Z,99268.58
2022-12-13T05:00:13.217Z,99276.44
2022-12-13T05:01:21.871Z,99274.56
2022-12-13T05:02:31.486Z,99265.00
2022-12-13T05:03:41.295Z,99273.14
2022-12-13T05:04:54.329Z,99275.20
2022-12-13T05:07:23.851Z,99277.92
2022-12-13T05:08:33.569Z,99289.95
2022-12-13T05:09:43.305Z,99290.86
2022-12-13T05:10:54.691Z,99292.45
2022-12-13T05:12:05.839Z,99285.27
2022-12-13T05:13:16.895Z,99295.75
2022-12-13T05:14:25.771Z,99293.03
2022-12-13T05:15:35.573Z,99298.25
2022-12-13T05:16:51.234Z,99295.53
2022-12-13T05:18:10.618Z,99298.18
2022-12-13T05:19:15.377Z,99290.38
2022-12-13T05:21:39.711Z,99291.09
2022-12-13T05:22:49.271Z,99296.89
2022-12-13T05:23:57.896Z,99300.39
2022-12-13T05:25:07.954Z,99312.81
2022-12-13T05:26:17.206Z,99302.44
2022-12-13T05:28:41.032Z,99300.64
2022-12-13T05:29:49.554Z,99310.73
2022-12-13T05:32:18.216Z,99305.75
2022-12-13T05:33:26.945Z,99310.67
2022-12-13T05:36:11.068Z,99301.13
2022-12-13T05:38:35.616Z,99299.77
2022-12-13T05:39:46.920Z,99300.09
2022-12-13T05:40:55.900Z,99296.53
2022-12-13T05:42:05.746Z,99301.38
2022-12-13T05:43:21.958Z,99297.88
2022-12-13T05:44:25.196Z,99307.03
2022-12-13T05:45:34.724Z,99308.02
2022-12-13T05:46:44.502Z,99310.39
2022-12-13T05:47:53.593Z,99314.03
2022-12-13T05:49:03.287Z,99317.73
2022-12-13T05:50:14.794Z,99317.80
2022-12-13T05:51:24.916Z,99319.53
2022-12-13T05:52:34.614Z,99321.19
2022-12-13T05:53:43.429Z,99318.34
2022-12-13T05:54:56.110Z,99314.56
2022-12-13T05:56:08.870Z,99299.48
2022-12-13T05:57:18.236Z,99298.36
2022-12-13T05:58:28.196Z,99289.06
2022-12-13T05:59:38.722Z,99295.02
2022-12-13T06:00:47.670Z,99292.59
2022-12-13T06:01:56.435Z,99287.30
2022-12-13T06:03:05.426Z,99287.37
2022-12-13T06:04:22.267Z,99294.36
2022-12-13T06:05:24.970Z,99293.58
2022-12-13T06:06:36.601Z,99291.92
2022-12-13T06:07:46.141Z,99295.23
2022-12-13T06:08:55.301Z,99301.05
2022-12-13T06:10:10.356Z,99303.33
2022-12-13T06:11:32.184Z,99296.12
2022-12-13T06:12:31.861Z,99305.57
2022-12-13T06:13:43.944Z,99301.85
2022-12-13T06:14:52.569Z,99304.06
2022-12-13T06:16:05.920Z,99309.55
2022-12-13T06:17:16.522Z,99313.00
2022-12-13T06:18:33.229Z,99312.78
2022-12-13T06:19:42.137Z,99306.71
2022-12-13T06:22:17.100Z,99305.02
2022-12-13T06:23:28.557Z,99301.85
2022-12-13T06:24:38.488Z,99298.55
2022-12-13T06:25:51.530Z,99306.64
2022-12-13T06:27:00.621Z,99304.77
2022-12-13T06:28:09.932Z,99313.37
2022-12-13T06:29:23.714Z,99310.58
2022-12-13T06:30:33.276Z,99309.43
2022-12-13T06:31:42.948Z,99312.51
2022-12-13T06:32:52.467Z,99311.09
2022-12-13T06:34:14.465Z,99307.64
2022-12-13T06:35:27.321Z,99307.94
2022-12-13T06:36:25.670Z,99310.27
2022-12-13T06:37:35.198Z,99312.92
2022-12-13T06:38:44.740Z,99311.12
2022-12-13T06:39:54.479Z,99314.80
2022-12-13T06:41:09.456Z,99316.73
2022-12-13T06:42:22.164Z,99315.92
2022-12-13T06:43:30.245Z,99315.92
2022-12-13T06:44:41.797Z,99316.97
2022-12-13T06:45:51.292Z,99316.09
2022-12-13T06:47:10.707Z,99314.44
2022-12-13T06:48:18.736Z,99322.54
2022-12-13T06:49:26.225Z,99327.34
2022-12-13T06:50:37.708Z,99323.12
2022-12-13T06:51:46.753Z,99326.69
2022-12-13T06:52:56.389Z,99325.99
2022-12-13T06:54:06.146Z,99333.09
2022-12-13T06:56:36.104Z,99330.06
2022-12-13T06:57:44.614Z,99325.41
2022-12-13T06:58:53.433Z,99330.06
2022-12-13T07:00:05.901Z,99333.00
2022-12-13T10:49:59.116Z,99305.31
2022-12-13T10:51:12.450Z,99312.57
2022-12-13T10:52:34.262Z,99298.05
2022-12-13T10:56:49.698Z,99278.30
2022-12-13T10:59:36.304Z,99281.14
2022-12-13T11:00:46.694Z,99289.89
2022-12-13T11:03:34.032Z,99285.42
2022-12-13T11:04:42.808Z,99293.16
2022-12-13T11:07:26.136Z,99279.91
2022-12-13T11:08:36.234Z,99283.57
2022-12-13T11:09:44.897Z,99283.87
2022-12-13T11:11:00.121Z,99290.61
2022-12-13T11:12:15.804Z,99290.52
2022-12-13T11:13:38.052Z,99292.80
2022-12-13T11:15:00.309Z,99289.20
2022-12-13T11:17:56.020Z,99282.31
2022-12-13T11:19:25.340Z,99282.31
2022-12-13T11:20:37.697Z,99278.38
2022-12-13T11:21:50.268Z,99280.39
2022-12-13T11:23:06.287Z,99286.84
2022-12-13T11:25:45.797Z,99278.41
2022-12-13T11:28:30.034Z,99283.09
2022-12-13T11:34:32.261Z,99273.19
2022-12-13T11:37:34.866Z,99277.87
2022-12-13T11:40:31.053Z,99270.19
2022-12-13T11:41:49.162Z,99284.25
2022-12-13T11:45:06.496Z,99283.33
2022-12-13T11:48:08.770Z,99286.52
2022-12-13T11:49:40.932Z,99283.45
2022-12-13T11:50:52.971Z,99280.67
2022-12-13T11:53:41.564Z,99271.27
2022-12-13T11:55:00.065Z,99284.25
2022-12-13T11:56:24.016Z,99292.27
2022-12-13T11:58:05.160Z,99287.13
2022-12-13T11:59:23.994Z,99297.72
2022-12-13T12:00:36.647Z,99286.55
2022-12-13T12:01:53.032Z,99292.84
2022-12-13T12:03:20.631Z,99293.77
2022-12-13T12:07:48.274Z,99285.98
2022-12-13T12:10:20.785Z,99280.95
2022-12-13T12:11:45.760Z,99290.27
2022-12-13T12:14:45.024Z,99285.81
2022-12-13T12:16:27.176Z,99293.55
2022-12-13T12:17:42.249Z,99292.66
2022-12-13T12:18:46.266Z,99301.67
2022-12-13T12:19:57.905Z,99298.95
2022-12-13T12:21:23.057Z,99295.31
2022-12-13T12:22:38.652Z,99295.39
2022-12-13T12:24:08.981Z,99293.63
2022-12-13T12:25:24.161Z,99297.33
2022-12-13T12:26:54.231Z,99291.23
2022-12-13T12:28:44.385Z,99291.30
2022-12-13T12:30:13.541Z,99291.38
2022-12-13T12:33:14.838Z,99292.04
2022-12-13T12:34:42.272Z,99295.23
2022-12-13T12:36:11.113Z,99296.93
2022-12-13T12:37:31.544Z,99299.66
2022-12-13T12:40:23.971Z,99291.64
2022-12-13T12:41:54.595Z,99304.64
2022-12-13T12:43:25.374Z,99297.69
2022-12-13T12:46:19.681Z,99301.00
2022-12-13T12:49:43.751Z,99297.62
2022-12-13T12:51:11.539Z,99296.31
2022-12-13T12:52:30.672Z,99294.59
2022-12-13T12:55:13.330Z,99285.34
2022-12-13T12:56:49.866Z,99287.57
2022-12-13T12:59:46.193Z,99279.02
2022-12-13T13:01:36.110Z,99290.95
2022-12-13T13:03:05.224Z,99285.73
2022-12-13T13:04:22.246Z,99283.30
2022-12-13T13:08:21.777Z,99289.30
2022-12-13T13:09:32.170Z,99280.45
2022-12-13T13:10:49.619Z,99283.94
2022-12-13T13:11:57.681Z,99281.36
2022-12-13T13:13:33.053Z,99287.47
2022-12-13T13:15:57.645Z,99282.03
2022-12-13T13:17:26.415Z,99287.78
2022-12-13T13:18:49.999Z,99284.80
2022-12-13T13:20:23.752Z,99283.82
2022-12-13T13:21:36.410Z,99286.84
2022-12-13T13:24:24.189Z,99280.30
2022-12-13T13:25:48.813Z,99276.27
2022-12-13T13:26:57.097Z,99287.76
2022-12-13T13:28:17.807Z,99283.28
2022-12-13T13:29:31.872Z,99277.08
2022-12-13T13:33:49.716Z,99273.38
2022-12-13T13:36:44.119Z,99271.72
2022-12-13T13:37:52.635Z,99277.66
2022-12-13T13:39:02.044Z,99275.02
2022-12-13T13:40:34.366Z,99277.59
2022-12-13T13:42:06.821Z,99278.81
2022-12-13T13:44:46.759Z,99276.00
2022-12-13T13:46:11.860Z,99273.73
2022-12-13T13:47:24.165Z,99277.19
2022-12-13T13:49:03.553Z,99277.12
2022-12-13T13:52:24.463Z,99278.38
2022-12-13T13:53:26.366Z,99279.76
2022-12-13T13:54:53.003Z,99271.22
2022-12-13T13:59:21.433Z,99269.69
2022-12-13T14:02:13.222Z,99277.28
2022-12-13T14:03:34.106Z,99287.38
2022-12-13T14:06:37.075Z,99279.14
2022-12-13T14:08:13.107Z,99277.75
2022-12-13T14:09:42.305Z,99283.03
2022-12-13T14:12:29.975Z,99284.66
2022-12-13T14:14:00.805Z,99291.39
2022-12-13T14:15:36.925Z,99288.75
2022-12-13T14:16:56.289Z,99288.55
2022-12-13T14:20:11.462Z,99288.77
2022-12-13T14:25:07.217Z,99287.46
2022-12-13T14:26:38.770Z,99294.38
2022-12-13T14:28:00.655Z,99284.83
2022-12-13T14:29:19.348Z,99286.16
2022-12-13T14:30:29.811Z,99293.36
2022-12-13T14:31:47.116Z,99286.84
2022-12-13T14:32:57.953Z,99293.13
2022-12-13T14:34:07.855Z,99298.68
2022-12-13T14:35:32.195Z,99299.11
2022-12-13T18:11:33.418Z,99317.81
2022-12-13T18:12:41.700Z,99315.96
2022-12-13T18:13:54.927Z,99322.84
2022-12-13T18:15:00.950Z,99324.91
2022-12-13T18:16:12.369Z,99326.18
2022-12-13T18:17:22.640Z,99327.31
2022-12-13T18:18:32.524Z,99329.22
2022-12-13T18:19:41.392Z,99325.91
2022-12-13T18:20:50.095Z,99324.43
2022-12-13T18:21:59.101Z,99324.06
2022-12-13T18:23:07.759Z,99311.62
2022-12-13T18:24:16.277Z,99312.09
2022-12-13T18:25:25.212Z,99322.70
2022-12-13T18:26:34.740Z,99315.30
2022-12-13T18:27:43.282Z,99316.22
2022-12-13T18:28:52.766Z,99313.78
2022-12-13T18:30:02.373Z,99325.55
2022-12-13T18:32:50.720Z,99325.48
2022-12-13T18:33:59.361Z,99327.11
2022-12-13T18:35:08.138Z,99328.95
2022-12-13T18:36:21.624Z,99335.35
2022-12-13T18:37:30.475Z,99327.75
2022-12-13T18:38:44.471Z,99333.17
2022-12-13T18:39:54.976Z,99328.87
2022-12-13T18:42:22.835Z,99333.34
2022-12-13T18:43:32.569Z,99349.59
2022-12-13T18:44:54.403Z,99332.98
2022-12-13T18:45:55.390Z,99335.75
2022-12-13T18:47:04.456Z,99339.86
2022-12-13T18:48:14.202Z,99344.89
2022-12-13T18:49:23.648Z,99341.39
2022-12-13T18:50:34.953Z,99350.08
2022-12-13T18:51:43.951Z,99339.66
2022-12-13T18:52:52.660Z,99343.25
2022-12-13T18:54:01.565Z,99339.66
2022-12-13T18:55:10.708Z,99339.92
2022-12-13T18:56:20.847Z,99354.86
2022-12-13T18:57:29.393Z,99348.82
2022-12-13T18:58:39.652Z,99354.92
2022-12-13T18:59:54.290Z,99355.97
2022-12-13T19:01:01.353Z,99361.19
2022-12-13T19:02:14.971Z,99360.21
2022-12-13T19:04:40.944Z,99352.59
2022-12-13T19:05:56.808Z,99367.19
2022-12-13T19:07:06.257Z,99358.48
2022-12-13T19:08:15.387Z,99363.64
2022-12-13T19:09:24.436Z,99366.47
2022-12-13T19:10:35.506Z,99371.69
2022-12-13T19:11:46.566Z,99369.95
2022-12-13T19:12:57.625Z,99372.54
2022-12-13T19:15:24.595Z,99371.02
2022-12-13T19:17:53.146Z,99372.81
2022-12-13T19:19:02.355Z,99369.70
2022-12-13T19:20:12.776Z,99374.98
2022-12-13T19:21:26.952Z,99375.74
2022-12-13T19:23:57.840Z,99371.78
2022-12-13T19:25:07.664Z,99387.07
2022-12-13T19:26:20.784Z,99377.34
2022-12-13T19:27:30.021Z,99384.30
2022-12-13T19:28:42.914Z,99381.72
2022-12-13T19:29:54.332Z,99366.28
2022-12-13T19:31:08.408Z,99392.42
2022-12-13T19:32:19.485Z,99387.92
2022-12-13T19:33:33.369Z,99384.71
2022-12-13T19:35:58.409Z,99385.91
2022-12-13T19:37:09.044Z,99393.67
2022-12-13T19:38:19.221Z,99395.34
2022-12-13T19:39:28.508Z,99384.71
2022-12-13T19:40:42.034Z,99396.12
2022-12-13T19:41:52.960Z,99397.14
2022-12-13T19:43:04.871Z,99400.05
2022-12-13T19:44:18.608Z,99400.81
2022-12-13T19:45:28.703Z,99400.91
2022-12-13T19:46:38.988Z,99397.99
2022-12-13T19:47:56.883Z,99406.56
2022-12-13T19:49:14.791Z,99406.31
2022-12-13T19:51:46.508Z,99396.20
2022-12-13T19:52:56.397Z,99398.33
2022-12-13T19:54:13.541Z,99392.38
2022-12-13T19:55:29.025Z,99403.91
2022-12-13T19:56:39.029Z,99400.50
2022-12-13T19:57:56.898Z,99411.00
2022-12-13T19:59:08.582Z,99401.20
2022-12-13T20:00:21.656Z,99407.95
2022-12-13T20:02:52.123Z,99409.95
2022-12-13T20:04:03.556Z,99411.45
2022-12-13T20:05:15.053Z,99406.77
2022-12-13T20:06:25.340Z,99419.97
2022-12-13T20:07:34.489Z,99413.78
2022-12-13T20:10:00.303Z,99417.16
2022-12-13T20:11:12.632Z,99414.21
2022-12-13T20:12:24.302Z,99418.64
2022-12-13T20:14:56.782Z,99428.25
2022-12-13T20:17:23.928Z,99425.95
2022-12-13T20:19:55.623Z,99425.07
2022-12-13T20:22:28.116Z,99435.20
2022-12-13T20:23:40.589Z,99422.32
2022-12-13T20:24:50.597Z,99427.82
2022-12-13T20:26:03.903Z,99429.08
2022-12-13T20:27:17.992Z,99436.30
2022-12-13T20:29:48.697Z,99429.63
2022-12-13T20:32:33.995Z,99440.35
2022-12-13T20:33:42.625Z,99440.52
2022-12-13T20:34:57.624Z,99438.59
2022-12-13T20:37:31.057Z,99438.48
2022-12-13T20:38:45.054Z,99435.48
2022-12-13T20:39:55.622Z,99445.06
2022-12-13T20:41:10.309Z,99446.75
2022-12-13T20:42:22.949Z,99444.88
2022-12-13T20:43:37.962Z,99443.16
2022-12-13T20:44:49.235Z,99447.52
2022-12-13T20:47:28.025Z,99447.41
2022-12-13T20:48:39.094Z,99456.52
2022-12-13T20:49:49.082Z,99463.75
2022-12-13T20:51:09.884Z,99453.27
2022-12-13T20:52:21.685Z,99453.20
2022-12-13T20:53:35.539Z,99450.61
2022-12-13T20:54:44.948Z,99451.52
2022-12-13T20:56:02.249Z,99459.77
2022-12-13T20:58:36.812Z,99440.14
2022-12-13T20:59:43.355Z,99447.55
2022-12-13T21:00:53.294Z,99458.91
2022-12-13T21:02:02.410Z,99454.59
2022-12-13T21:03:11.304Z,99455.50
2022-12-13T21:04:20.742Z,99457.18
2022-12-13T21:05:31.269Z,99462.11
2022-12-13T21:06:42.393Z,99460.41
2022-12-13T21:08:11.202Z,99464.62
2022-12-13T21:10:35.051Z,99461.45
2022-12-13T21:11:46.637Z,99467.11
2022-12-13T21:12:55.287Z,99463.56
2022-12-13T21:14:24.688Z,99472.28
2022-12-13T21:15:33.312Z,99459.09
2022-12-13T21:16:48.408Z,99467.89
2022-12-13T21:17:58.008Z,99476.88
2022-12-13T21:19:09.445Z,99467.11
2022-12-13T21:20:18.561Z,99473.38
2022-12-13T21:21:28.753Z,99477.70
2022-12-13T21:23:54.982Z,99479.28
2022-12-13T21:25:04.544Z,99479.77
2022-12-13T21:26:13.500Z,99482.25
2022-12-13T21:27:23.087Z,99469.33
2022-12-13T21:28:33.292Z,99475.45
2022-12-13T21:29:42.840Z,99480.61
2022-12-13T21:31:07.795Z,99483.98
2022-12-13T21:32:17.353Z,99476.02
2022-12-13T21:33:27.545Z,99480.52
2022-12-13T21:34:36.706Z,99478.86
2022-12-13T21:35:45.248Z,99474.55
2022-12-13T21:36:54.061Z,99484.20
2022-12-13T21:38:05.434Z,99481.77
2022-12-13T21:39:18.806Z,99485.98
2022-12-13T21:40:29.227Z,99485.09
2022-12-13T21:41:39.518Z,99479.88
2022-12-13T21:42:48.029Z,99484.45
2022-12-13T21:43:57.193Z,99475.67
2022-12-13T21:45:07.201Z,99482.63
2022-12-13T21:46:18.944Z,99479.23
2022-12-13T21:47:28.179Z,99478.23
2022-12-13T21:48:40.301Z,99478.23
2022-12-13T21:49:49.155Z,99483.52
2022-12-13T21:50:58.486Z,99474.86
2022-12-13T21:52:07.098Z,99478.45
2022-12-13T21:53:16.112Z,99475.81
2022-12-13T21:54:24.627Z,99471.75
2022-12-13T21:55:40.481Z,99476.13
2022-12-13T21:57:02.437Z,99480.50
2022-12-13T21:58:30.427Z,99485.03
2022-12-13T22:00:54.840Z,99480.28
2022-12-13T22:02:15.151Z,99477.02
2022-12-13T22:04:41.302Z,99488.94
2022-12-13T22:05:50.760Z,99490.09
2022-12-13T22:07:00.364Z,99490.83
2022-12-13T22:08:09.449Z,99492.48
2022-12-13T22:09:18.464Z,99491.67
2022-12-13T22:10:27.309Z,99503.22
2022-12-13T22:11:36.423Z,99504.02
2022-12-13T22:12:46.159Z,99507.44
2022-12-13T22:13:56.787Z,99495.16
2022-12-13T22:16:25.751Z,99506.97
2022-12-13T22:17:37.838Z,99514.34
2022-12-13T22:18:46.740Z,99517.78
2022-12-13T22:19:56.412Z,99519.81
2022-12-13T22:21:06.967Z,99517.12
2022-12-13T22:22:17.415Z,99516.39
2022-12-13T22:23:26.984Z,99516.29
2022-12-13T22:24:37.636Z,99526.73
2022-12-13T22:25:46.574Z,99526.78
2022-12-13T22:26:57.183Z,99525.88
2022-12-13T22:28:05.687Z,99523.20
2022-12-13T22:29:15.149Z,99526.78
2022-12-13T22:30:25.547Z,99528.56
2022-12-13T22:31:34.184Z,99520.76
2022-12-13T22:32:43.833Z,99522.70
2022-12-13T22:33:52.868Z,99532.20
2022-12-13T22:35:01.732Z,99537.42
2022-12-13T22:36:11.638Z,99531.16
2022-12-13T22:37:20.375Z,99533.59
2022-12-13T22:38:29.798Z,99532.59
2022-12-13T22:39:39.590Z,99532.53
2022-12-13T22:40:48.870Z,99535.16
2022-12-13T22:41:57.423Z,99528.79
2022-12-13T22:43:06.496Z,99522.52
2022-12-13T22:44:17.113Z,99532.01
2022-12-13T22:45:26.813Z,99525.95
2022-12-13T22:46:36.360Z,99523.31
2022-12-13T22:47:47.073Z,99529.42
2022-12-13T22:48:57.619Z,99522.47
2022-12-13T22:50:07.770Z,99520.78
2022-12-13T22:51:17.597Z,99532.86
2022-12-13T22:52:32.015Z,99519.63
2022-12-13T22:53:40.969Z,99534.44
2022-12-13T22:54:51.566Z,99538.81
2022-12-13T22:57:27.710Z,99532.31
2022-12-13T22:58:38.487Z,99535.13
2022-12-13T22:59:49.297Z,99535.06
2022-12-13T23:00:58.429Z,99533.44
2022-12-13T23:02:11.235Z,99538.66
2022-12-13T23:03:19.956Z,99538.66
2022-12-13T23:04:28.947Z,99539.49
2022-12-13T23:06:53.994Z,99537.33
2022-12-13T23:09:17.803Z,99535.52
2022-12-13T23:10:46.321Z,99534.89
2022-12-13T23:12:13.376Z,99531.53
2022-12-13T23:13:22.391Z,99539.39
2022-12-13T23:14:33.376Z,99533.31
2022-12-13T23:15:47.587Z,99538.91
2022-12-13T23:16:53.908Z,99544.09
2022-12-13T23:18:04.081Z,99535.27
2022-12-13T23:20:27.089Z,99542.18
2022-12-13T23:21:36.700Z,99550.94
2022-12-13T23:22:45.234Z,99544.03
2022-12-13T23:23:56.519Z,99551.89
2022-12-13T23:25:07.128Z,99549.26
2022-12-13T23:26:20.687Z,99552.78
2022-12-13T23:27:29.767Z,99553.78
2022-12-13T23:28:41.099Z,99547.77
2022-12-13T23:29:51.361Z,99557.47
2022-12-13T23:31:01.641Z,99554.69
2022-12-13T23:32:12.780Z,99555.53
2022-12-13T23:33:22.226Z,99555.48
2022-12-13T23:34:32.889Z,99555.48
2022-12-13T23:35:42.484Z,99550.21
2022-12-13T23:36:51.698Z,99562.44
2022-12-13T23:38:01.235Z,99560.01
2022-12-13T23:39:11.045Z,99552.95
2022-12-13T23:40:19.670Z,99562.80
2022-12-13T23:41:33.921Z,99568.02
2022-12-13T23:42:42.627Z,99564.45
2022-12-13T23:43:55.144Z,99567.06
2022-12-13T23:45:05.672Z,99565.50
2022-12-13T23:47:33.855Z,99565.96
2022-12-13T23:48:44.299Z,99578.56
2022-12-13T23:49:52.799Z,99573.23
2022-12-13T23:51:04.445Z,99573.19
2022-12-13T23:52:14.596Z,99569.70
2022-12-13T23:53:24.303Z,99570.50
2022-12-13T23:54:33.357Z,99567.02
2022-12-13T23:55:42.911Z,99573.29
2022-12-13T23:56:54.061Z,99573.23
2022-12-13T23:58:03.373Z,99582.15
2022-12-13T23:59:13.430Z,99570.70
